Observation data for Memphis on 10/17/2020      Previous  Date  Next       Current Mesonet Observations  Soil Data  Daily Summary Page  Observations in Plain Language
KMES 170500Z 15005KT 11/M03 A3011 RMK A01 T01081033  RH  037%=      5-min Rain = 0
KMES 170505Z 15005KT 11/M03 A3011 RMK A01 T01071033  RH  037%=      5-min Rain = 0
KMES 170510Z 15003KT 11/M03 A301 RMK A01 T01061033  RH  038%=      5-min Rain = 0
KMES 170515Z 15003KT 10/M03 A301 RMK A01 T01031033  RH  039%=      5-min Rain = 0
KMES 170520Z 15003KT 10/M03 A301 RMK A01 T01011033  RH  039%=      5-min Rain = 0
KMES 170525Z 14001KT 10/M03 A301 RMK A01 T00991033  RH  040%=      5-min Rain = 0
KMES 170530Z 08000KT 10/M04 A301 RMK A01 T00961035  RH  040%=      5-min Rain = 0
KMES 170535Z 08001KT 09/M04 A301 RMK A01 T00881043  RH  039%=      5-min Rain = 0
KMES 170540Z 06001KT 08/M04 A301 RMK A01 T00791043  RH  042%=      5-min Rain = 0
KMES 170545Z 03002KT 07/M04 A301 RMK A01 T00741040  RH  044%=      5-min Rain = 0
KMES 170550Z 03001KT 07/M04 A301 RMK A01 T00731041  RH  044%=      5-min Rain = 0
KMES 170555Z 04001KT 07/M04 A3009 RMK A01 T00711044  RH  044%=      5-min Rain = 0
KMES 170600Z 06002KT 07/M04 A3009 RMK A01 T00711040  RH  046%=      5-min Rain = 0
KMES 170605Z 06002KT 07/M04 A3009 RMK A01 T00711038  RH  046%=      5-min Rain = 0
KMES 170610Z 06002KT 07/M04 A3009 RMK A01 T00721035  RH  047%=      5-min Rain = 0
KMES 170615Z 05002KT 07/M03 A3009 RMK A01 T00731034  RH  047%=      5-min Rain = 0
KMES 170620Z 05001KT 07/M03 A3009 RMK A01 T00731032  RH  047%=      5-min Rain = 0
KMES 170625Z 08001KT 07/M03 A3008 RMK A01 T00741031  RH  048%=      5-min Rain = 0
KMES 170630Z 08000KT 07/M03 A3008 RMK A01 T00731034  RH  047%=      5-min Rain = 0
KMES 170635Z 00001KT 07/M04 A3008 RMK A01 T00691035  RH  047%=      5-min Rain = 0
KMES 170640Z 35000KT 07/M03 A3008 RMK A01 T00701034  RH  048%=      5-min Rain = 0
KMES 170645Z 35000KT 07/M04 A3007 RMK A01 T00711035  RH  047%=      5-min Rain = 0
KMES 170650Z 28000KT 07/M03 A3007 RMK A01 T00741030  RH  048%=      5-min Rain = 0
KMES 170655Z 20001KT 08/M03 A3007 RMK A01 T00771029  RH  048%=      5-min Rain = 0
KMES 170700Z 18003KT 08/M03 A3006 RMK A01 T00791029  RH  047%=      5-min Rain = 0
KMES 170705Z 18004KT 08/M02 A3006 RMK A01 T00811024  RH  048%=      5-min Rain = 0
KMES 170710Z 19005KT 08/M02 A3006 RMK A01 T00841022  RH  047%=      5-min Rain = 0
KMES 170715Z 18005KT 09/M02 A3006 RMK A01 T00861021  RH  047%=      5-min Rain = 0
KMES 170720Z 18006KT 09/M02 A3005 RMK A01 T00901020  RH  046%=      5-min Rain = 0
KMES 170725Z 18005KT 09/M02 A3005 RMK A01 T00931019  RH  046%=      5-min Rain = 0
KMES 170730Z 18005KT 09/M02 A3005 RMK A01 T00941019  RH  046%=      5-min Rain = 0
KMES 170735Z 18004KT 10/M02 A3005 RMK A01 T00951019  RH  045%=      5-min Rain = 0
KMES 170740Z 18003KT 10/M02 A3005 RMK A01 T00951019  RH  045%=      5-min Rain = 0
KMES 170745Z 18003KT 09/M02 A3005 RMK A01 T00931019  RH  046%=      5-min Rain = 0
KMES 170750Z 17002KT 09/M02 A3005 RMK A01 T00921019  RH  046%=      5-min Rain = 0
KMES 170755Z 16002KT 09/M02 A3005 RMK A01 T00891019  RH  047%=      5-min Rain = 0
KMES 170800Z 17002KT 09/M02 A3004 RMK A01 T00861020  RH  048%=      5-min Rain = 0
KMES 170805Z 18003KT 08/M02 A3004 RMK A01 T00831020  RH  049%=      5-min Rain = 0
KMES 170810Z 18003KT 08/M02 A3004 RMK A01 T00811020  RH  049%=      5-min Rain = 0
KMES 170815Z 19003KT 08/M02 A3004 RMK A01 T00811020  RH  049%=      5-min Rain = 0
KMES 170820Z 19003KT 08/M02 A3004 RMK A01 T00791022  RH  049%=      5-min Rain = 0
KMES 170825Z 18003KT 08/M02 A3003 RMK A01 T00761022  RH  050%=      5-min Rain = 0
KMES 170830Z 18004KT 08/M02 A3003 RMK A01 T00801016  RH  051%=      5-min Rain = 0
KMES 170835Z 18005KT 09/M02 A3003 RMK A01 T00871016  RH  049%=      5-min Rain = 0
KMES 170840Z 18005KT 09/M02 A3002 RMK A01 T00901016  RH  048%=      5-min Rain = 0
KMES 170845Z 18006KT 09/M02 A3002 RMK A01 T00921015  RH  047%=      5-min Rain = 0
KMES 170850Z 18007KT 10/M02 A3002 RMK A01 T00951015  RH  047%=      5-min Rain = 0
KMES 170855Z 17007KT 10/M02 A3002 RMK A01 T00961015  RH  046%=      5-min Rain = 0
KMES 170900Z 17006G11KT 10/M02 A3001 RMK A01 T00951015  RH  046%=      5-min Rain = 0
KMES 170905Z 16006KT 09/M02 A3001 RMK A01 T00941015  RH  047%=      5-min Rain = 0
KMES 170910Z 16006KT 10/M02 A3001 RMK A01 T00951015  RH  047%=      5-min Rain = 0
KMES 170915Z 15006KT 09/M02 A3001 RMK A01 T00941015  RH  047%=      5-min Rain = 0
KMES 170920Z 15006KT 09/M02 A3001 RMK A01 T00921015  RH  047%=      5-min Rain = 0
KMES 170925Z 15005KT 09/M01 A3001 RMK A01 T00901014  RH  048%=      5-min Rain = 0
KMES 170930Z 15005KT 09/M01 A3001 RMK A01 T00891013  RH  049%=      5-min Rain = 0
KMES 170935Z 15005KT 09/M01 A3001 RMK A01 T00891013  RH  049%=      5-min Rain = 0
KMES 170940Z 16004KT 09/M01 A3001 RMK A01 T00881013  RH  050%=      5-min Rain = 0
KMES 170945Z 16004KT 09/M01 A30 RMK A01 T00861013  RH  050%=      5-min Rain = 0
KMES 170950Z 16003KT 08/M01 A30 RMK A01 T00841014  RH  050%=      5-min Rain = 0
KMES 170955Z 16003KT 08/M01 A30 RMK A01 T00831014  RH  051%=      5-min Rain = 0
KMES 171000Z 16002KT 08/M01 A30 RMK A01 T00831014  RH  051%=      5-min Rain = 0
KMES 171005Z 14001KT 08/M02 A30 RMK A01 T00811015  RH  051%=      5-min Rain = 0
KMES 171010Z 14003KT 08/M01 A30 RMK A01 T00801014  RH  052%=      5-min Rain = 0
KMES 171015Z 14003KT 08/M02 A30 RMK A01 T00781016  RH  052%=      5-min Rain = 0
KMES 171020Z 13003KT 08/M02 A30 RMK A01 T00761016  RH  053%=      5-min Rain = 0
KMES 171025Z 12002KT 07/M02 A30 RMK A01 T00721015  RH  054%=      5-min Rain = 0
KMES 171030Z 12001KT 07/M02 A3001 RMK A01 T00701017  RH  054%=      5-min Rain = 0
KMES 171035Z 14003KT 07/M02 A30 RMK A01 T00701015  RH  055%=      5-min Rain = 0
KMES 171040Z 15005KT 07/M01 A30 RMK A01 T00731012  RH  055%=      5-min Rain = 0
KMES 171045Z 14005KT 08/M01 A30 RMK A01 T00751012  RH  054%=      5-min Rain = 0
KMES 171050Z 15004KT 08/M01 A30 RMK A01 T00771012  RH  054%=      5-min Rain = 0
KMES 171055Z 15005KT 08/M01 A30 RMK A01 T00781012  RH  053%=      5-min Rain = 0
KMES 171100Z 15005KT 08/M01 A30 RMK A01 T00791012  RH  053%=      5-min Rain = 0
KMES 171105Z 14006KT 08/M01 A30 RMK A01 T00811012  RH  053%=      5-min Rain = 0
KMES 171110Z 13006KT 08/M01 A30 RMK A01 T00811012  RH  052%=      5-min Rain = 0
KMES 171115Z 14006KT 08/M01 A30 RMK A01 T00811012  RH  052%=      5-min Rain = 0
KMES 171120Z 14006KT 08/M01 A30 RMK A01 T00821012  RH  052%=      5-min Rain = 0
KMES 171125Z 14007KT 08/M01 A30 RMK A01 T00841011  RH  051%=      5-min Rain = 0
KMES 171130Z 15007KT 09/M01 A30 RMK A01 T00851011  RH  051%=      5-min Rain = 0
KMES 171135Z 15006KT 08/M01 A30 RMK A01 T00841011  RH  052%=      5-min Rain = 0
KMES 171140Z 15007KT 08/M01 A30 RMK A01 T00841011  RH  052%=      5-min Rain = 0
KMES 171145Z 15007KT 08/M01 A2999 RMK A01 T00821011  RH  052%=      5-min Rain = 0
KMES 171150Z 15006KT 08/M01 A2999 RMK A01 T00811011  RH  053%=      5-min Rain = 0
KMES 171155Z 15007KT 08/M01 A2999 RMK A01 T00811011  RH  053%=      5-min Rain = 0
KMES 171200Z 14008KT 08/M01 A2999 RMK A01 T00811010  RH  053%=      5-min Rain = 0
KMES 171205Z 15006KT 08/M01 A2999 RMK A01 T00811011  RH  053%=      5-min Rain = 0
KMES 171210Z 15006KT 08/M01 A2999 RMK A01 T00801011  RH  053%=      5-min Rain = 0
KMES 171215Z 15006KT 08/M01 A2999 RMK A01 T00781011  RH  054%=      5-min Rain = 0
KMES 171220Z 15007KT 08/M01 A2999 RMK A01 T00781010  RH  054%=      5-min Rain = 0
KMES 171225Z 15007KT 08/M01 A2999 RMK A01 T00791010  RH  054%=      5-min Rain = 0
KMES 171230Z 16006KT 08/M01 A2998 RMK A01 T00801010  RH  054%=      5-min Rain = 0
KMES 171235Z 16007KT 08/M01 A2998 RMK A01 T00801010  RH  054%=      5-min Rain = 0
KMES 171240Z 16008KT 08/M01 A2997 RMK A01 T00811010  RH  053%=      5-min Rain = 0
KMES 171245Z 16008KT 08/M01 A2997 RMK A01 T00821009  RH  053%=      5-min Rain = 0
KMES 171250Z 15006KT 08/M01 A2997 RMK A01 T00831009  RH  053%=      5-min Rain = 0
KMES 171255Z 15006KT 08/M01 A2997 RMK A01 T00841009  RH  052%=      5-min Rain = 0
KMES 171300Z 16006KT 08/M01 A2997 RMK A01 T00841009  RH  053%=      5-min Rain = 0
KMES 171305Z 16007KT 08/M01 A2997 RMK A01 T00831009  RH  053%=      5-min Rain = 0
KMES 171310Z 15007KT 09/M01 A2997 RMK A01 T00861008  RH  052%=      5-min Rain = 0
KMES 171315Z 15007G12KT 09/M01 A2997 RMK A01 T00881008  RH  051%=      5-min Rain = 0
KMES 171320Z 16007KT 09/M01 A2997 RMK A01 T00901007  RH  051%=      5-min Rain = 0
KMES 171325Z 16007KT 09/M01 A2997 RMK A01 T00911007  RH  051%=      5-min Rain = 0
KMES 171330Z 16008KT 09/M01 A2997 RMK A01 T00931007  RH  050%=      5-min Rain = 0
KMES 171335Z 15006KT 09/M01 A2997 RMK A01 T00941006  RH  050%=      5-min Rain = 0
KMES 171340Z 16007KT 10/M01 A2998 RMK A01 T00951006  RH  050%=      5-min Rain = 0
KMES 171345Z 16007KT 10/M01 A2998 RMK A01 T00961005  RH  050%=      5-min Rain = 0
KMES 171350Z 16008KT 10/M00 A2997 RMK A01 T00991004  RH  049%=      5-min Rain = 0
KMES 171355Z 16009KT 10/M01 A2998 RMK A01 T01011005  RH  048%=      5-min Rain = 0
KMES 171400Z 17008KT 10/M00 A2998 RMK A01 T01041004  RH  048%=      5-min Rain = 0
KMES 171405Z 17009KT 11/M00 A2997 RMK A01 T01061004  RH  047%=      5-min Rain = 0
KMES 171410Z 17008G13KT 11/M00 A2997 RMK A01 T01091004  RH  046%=      5-min Rain = 0
KMES 171415Z 17007G12KT 11/M00 A2997 RMK A01 T01111004  RH  045%=      5-min Rain = 0
KMES 171420Z 16007G13KT 11/M00 A2997 RMK A01 T01141003  RH  045%=      5-min Rain = 0
KMES 171425Z 16008KT 12/M00 A2997 RMK A01 T01151003  RH  045%=      5-min Rain = 0
KMES 171430Z 15008KT 12/M00 A2997 RMK A01 T01161002  RH  044%=      5-min Rain = 0
KMES 171435Z 16008G13KT 12/M00 A2997 RMK A01 T01191001  RH  044%=      5-min Rain = 0
KMES 171440Z 16010G15KT 12/00 A2996 RMK A01 T01210000  RH  044%=      5-min Rain = 0
KMES 171445Z 17010G16KT 13/00 A2996 RMK A01 T01250002  RH  043%=      5-min Rain = 0
KMES 171450Z 17009G15KT 13/00 A2996 RMK A01 T01300004  RH  042%=      5-min Rain = 0
KMES 171455Z 16009KT 13/00 A2996 RMK A01 T01330004  RH  042%=      5-min Rain = 0
KMES 171500Z 17009G14KT 14/01 A2996 RMK A01 T01350005  RH  042%=      5-min Rain = 0
KMES 171505Z 17009G15KT 14/01 A2996 RMK A01 T01390007  RH  041%=      5-min Rain = 0
KMES 171510Z 17009KT 14/01 A2996 RMK A01 T01430008  RH  040%=      5-min Rain = 0
KMES 171515Z 17009KT 15/01 A2996 RMK A01 T01450009  RH  040%=      5-min Rain = 0
KMES 171520Z 17008G13KT 15/01 A2996 RMK A01 T01480011  RH  040%=      5-min Rain = 0
KMES 171525Z 18010G15KT 15/01 A2995 RMK A01 T01530013  RH  039%=      5-min Rain = 0
KMES 171530Z 18010KT 16/01 A2995 RMK A01 T01550013  RH  039%=      5-min Rain = 0
KMES 171535Z 19010KT 16/01 A2995 RMK A01 T01570014  RH  038%=      5-min Rain = 0
KMES 171540Z 19010KT 16/02 A2994 RMK A01 T01620015  RH  038%=      5-min Rain = 0
KMES 171545Z 18010G15KT 17/02 A2993 RMK A01 T01660016  RH  037%=      5-min Rain = 0
KMES 171550Z 18011G18KT 17/02 A2993 RMK A01 T01710019  RH  037%=      5-min Rain = 0
KMES 171555Z 20011G18KT 17/02 A2993 RMK A01 T01740022  RH  036%=      5-min Rain = 0
KMES 171600Z 19011G16KT 18/02 A2993 RMK A01 T01810022  RH  035%=      5-min Rain = 0
KMES 171605Z 20012G17KT 18/02 A2993 RMK A01 T01800021  RH  035%=      5-min Rain = 0
KMES 171610Z 20012G17KT 18/02 A2993 RMK A01 T01810021  RH  035%=      5-min Rain = 0
KMES 171615Z 20013G19KT 18/02 A2993 RMK A01 T01840022  RH  034%=      5-min Rain = 0
KMES 171620Z 20011KT 19/02 A2993 RMK A01 T01850022  RH  034%=      5-min Rain = 0
KMES 171625Z 21012G17KT 19/02 A2993 RMK A01 T01900023  RH  033%=      5-min Rain = 0
KMES 171630Z 21012G17KT 19/02 A2993 RMK A01 T01910023  RH  033%=      5-min Rain = 0
KMES 171635Z 21011KT 19/02 A2993 RMK A01 T01940024  RH  033%=      5-min Rain = 0
KMES 171640Z 21010G15KT 20/02 A2993 RMK A01 T01960024  RH  033%=      5-min Rain = 0
KMES 171645Z 21009KT 20/03 A2993 RMK A01 T01980026  RH  032%=      5-min Rain = 0
KMES 171650Z 19009KT 20/03 A2992 RMK A01 T02030026  RH  032%=      5-min Rain = 0
KMES 171655Z 18008G13KT 20/03 A2992 RMK A01 T02040027  RH  031%=      5-min Rain = 0
KMES 171700Z 21009KT 21/03 A2992 RMK A01 T02070028  RH  031%=      5-min Rain = 0
KMES 171705Z 20009KT 21/03 A2991 RMK A01 T02110029  RH  031%=      5-min Rain = 0
KMES 171710Z 21007KT 21/03 A2991 RMK A01 T02120029  RH  030%=      5-min Rain = 0
KMES 171715Z 21009G15KT 22/03 A2991 RMK A01 T02160030  RH  030%=      5-min Rain = 0
KMES 171720Z 22008KT 22/03 A299 RMK A01 T02190032  RH  030%=      5-min Rain = 0
KMES 171725Z 19007G12KT 22/03 A299 RMK A01 T02220032  RH  029%=      5-min Rain = 0
KMES 171730Z 19006KT 23/03 A299 RMK A01 T02270034  RH  029%=      5-min Rain = 0
KMES 171735Z 19006KT 23/04 A299 RMK A01 T02330035  RH  028%=      5-min Rain = 0
KMES 171740Z 18005KT 24/04 A2989 RMK A01 T02370035  RH  027%=      5-min Rain = 0
KMES 171745Z 18007G12KT 24/03 A2989 RMK A01 T02390034  RH  027%=      5-min Rain = 0
KMES 171750Z 19008KT 24/03 A2988 RMK A01 T02410033  RH  026%=      5-min Rain = 0
KMES 171755Z 20010G17KT 25/03 A2988 RMK A01 T02460033  RH  025%=      5-min Rain = 0
KMES 171800Z 20009KT 25/03 A2987 RMK A01 T02500033  RH  025%=      5-min Rain = 0
KMES 171805Z 20011G17KT 25/03 A2987 RMK A01 T02540033  RH  024%=      5-min Rain = 0
KMES 171810Z 20010KT 26/03 A2986 RMK A01 T02570032  RH  024%=      5-min Rain = 0
KMES 171815Z 19011G18KT 26/03 A2986 RMK A01 T02590030  RH  023%=      5-min Rain = 0
KMES 171820Z 18008KT 26/03 A2986 RMK A01 T02600031  RH  023%=      5-min Rain = 0
KMES 171825Z 21009G15KT 26/03 A2986 RMK A01 T02630029  RH  022%=      5-min Rain = 0
KMES 171830Z 19009G15KT 27/03 A2986 RMK A01 T02680029  RH  022%=      5-min Rain = 0
KMES 171835Z 22008KT 27/03 A2986 RMK A01 T02690029  RH  022%=      5-min Rain = 0
KMES 171840Z 20005KT 27/03 A2985 RMK A01 T02690028  RH  021%=      5-min Rain = 0
KMES 171845Z 23006G11KT 27/03 A2985 RMK A01 T02690025  RH  021%=      5-min Rain = 0
KMES 171850Z 20008KT 27/02 A2985 RMK A01 T02740019  RH  019%=      5-min Rain = 0
KMES 171855Z 21008KT 28/02 A2985 RMK A01 T02750016  RH  019%=      5-min Rain = 0
KMES 171900Z 20007G12KT 28/02 A2985 RMK A01 T02750015  RH  019%=      5-min Rain = 0
KMES 171905Z 21006KT 28/01 A2985 RMK A01 T02770013  RH  018%=      5-min Rain = 0
KMES 171910Z 23006KT 28/01 A2984 RMK A01 T02780014  RH  018%=      5-min Rain = 0
KMES 171915Z 20004KT 28/01 A2984 RMK A01 T02800011  RH  018%=      5-min Rain = 0
KMES 171920Z 24007G14KT 28/01 A2984 RMK A01 T02810008  RH  017%=      5-min Rain = 0
KMES 171925Z 29004KT 28/01 A2984 RMK A01 T02820008  RH  017%=      5-min Rain = 0
KMES 171930Z 28003KT 28/01 A2984 RMK A01 T02800009  RH  017%=      5-min Rain = 0
KMES 171935Z 31006KT 28/01 A2983 RMK A01 T02830011  RH  017%=      5-min Rain = 0
KMES 171940Z 30006KT 28/01 A2983 RMK A01 T02830010  RH  017%=      5-min Rain = 0
KMES 171945Z 31004KT 28/01 A2983 RMK A01 T02810010  RH  017%=      5-min Rain = 0
KMES 171950Z 29004KT 28/01 A2983 RMK A01 T02820009  RH  017%=      5-min Rain = 0
KMES 171955Z 23002KT 29/01 A2983 RMK A01 T02860009  RH  017%=      5-min Rain = 0
KMES 172000Z 24003KT 29/01 A2983 RMK A01 T02910008  RH  016%=      5-min Rain = 0
KMES 172005Z 22004KT 29/01 A2983 RMK A01 T02890008  RH  016%=      5-min Rain = 0
KMES 172010Z 22004KT 29/01 A2983 RMK A01 T02880008  RH  017%=      5-min Rain = 0
KMES 172015Z 21002KT 29/01 A2982 RMK A01 T02920007  RH  016%=      5-min Rain = 0
KMES 172020Z 22002KT 29/01 A2982 RMK A01 T02930005  RH  016%=      5-min Rain = 0
KMES 172025Z 25003KT 30/01 A2982 RMK A01 T02950005  RH  016%=      5-min Rain = 0
KMES 172030Z 26005KT 29/01 A2981 RMK A01 T02910006  RH  016%=      5-min Rain = 0
KMES 172035Z 24004KT 29/01 A2981 RMK A01 T02910007  RH  016%=      5-min Rain = 0
KMES 172040Z 22006KT 29/01 A298 RMK A01 T02940007  RH  016%=      5-min Rain = 0
KMES 172045Z 15004KT 30/01 A298 RMK A01 T02990005  RH  015%=      5-min Rain = 0
KMES 172050Z 14003KT 30/01 A2979 RMK A01 T03010005  RH  015%=      5-min Rain = 0
KMES 172055Z 10004KT 30/00 A2979 RMK A01 T03010004  RH  015%=      5-min Rain = 0
KMES 172100Z 10005KT 30/01 A2978 RMK A01 T03000005  RH  015%=      5-min Rain = 0
KMES 172105Z 13005KT 30/00 A2978 RMK A01 T02990004  RH  015%=      5-min Rain = 0
KMES 172110Z 17001KT 30/00 A2978 RMK A01 T03030004  RH  015%=      5-min Rain = 0
KMES 172115Z 10003KT 31/00 A2978 RMK A01 T03070002  RH  014%=      5-min Rain = 0
KMES 172120Z 13005KT 31/M00 A2978 RMK A01 T03081001  RH  014%=      5-min Rain = 0
KMES 172125Z 07004KT 31/M00 A2978 RMK A01 T03071001  RH  014%=      5-min Rain = 0
KMES 172130Z 12006KT 31/M00 A2977 RMK A01 T03071003  RH  014%=      5-min Rain = 0
KMES 172135Z 13006KT 31/M01 A2977 RMK A01 T03081005  RH  013%=      5-min Rain = 0
KMES 172140Z 11006KT 31/M00 A2977 RMK A01 T03091004  RH  013%=      5-min Rain = 0
KMES 172145Z 10004KT 31/M00 A2977 RMK A01 T03091003  RH  014%=      5-min Rain = 0
KMES 172150Z 09003KT 31/M00 A2976 RMK A01 T03091002  RH  014%=      5-min Rain = 0
KMES 172155Z 13006KT 31/M01 A2976 RMK A01 T03121005  RH  013%=      5-min Rain = 0
KMES 172200Z 13006KT 31/M00 A2976 RMK A01 T03131004  RH  013%=      5-min Rain = 0
KMES 172205Z 13007KT 31/M01 A2976 RMK A01 T03131005  RH  013%=      5-min Rain = 0
KMES 172210Z 13006KT 31/M01 A2975 RMK A01 T03131005  RH  013%=      5-min Rain = 0
KMES 172215Z 14006KT 32/M00 A2975 RMK A01 T03151004  RH  013%=      5-min Rain = 0
KMES 172220Z 12006KT 32/M01 A2975 RMK A01 T03161005  RH  013%=      5-min Rain = 0
KMES 172225Z 11007KT 32/M00 A2974 RMK A01 T03171003  RH  013%=      5-min Rain = 0
KMES 172230Z 11007KT 32/M01 A2974 RMK A01 T03151005  RH  013%=      5-min Rain = 0
KMES 172235Z 11006KT 31/M01 A2974 RMK A01 T03141005  RH  013%=      5-min Rain = 0
KMES 172240Z 11008KT 32/M00 A2974 RMK A01 T03151004  RH  013%=      5-min Rain = 0
KMES 172245Z 10007KT 31/00 A2974 RMK A01 T03130004  RH  014%=      5-min Rain = 0
KMES 172250Z 10008KT 31/03 A2974 RMK A01 T03090031  RH  017%=      5-min Rain = 0
KMES 172255Z 10009KT 31/04 A2973 RMK A01 T03050035  RH  018%=      5-min Rain = 0
KMES 172300Z 10007KT 30/04 A2973 RMK A01 T03030036  RH  019%=      5-min Rain = 0
KMES 172305Z 10007KT 30/03 A2973 RMK A01 T03020034  RH  018%=      5-min Rain = 0
KMES 172310Z 10006KT 30/03 A2973 RMK A01 T03020031  RH  018%=      5-min Rain = 0
KMES 172315Z 09006KT 30/03 A2973 RMK A01 T03010034  RH  019%=      5-min Rain = 0
KMES 172320Z 08005KT 30/04 A2973 RMK A01 T02990036  RH  019%=      5-min Rain = 0
KMES 172325Z 07005KT 30/04 A2973 RMK A01 T02980037  RH  019%=      5-min Rain = 0
KMES 172330Z 07006KT 30/04 A2973 RMK A01 T02960037  RH  020%=      5-min Rain = 0
KMES 172335Z 07006KT 29/04 A2973 RMK A01 T02930037  RH  020%=      5-min Rain = 0
KMES 172340Z 08005KT 29/04 A2973 RMK A01 T02910038  RH  020%=      5-min Rain = 0
KMES 172345Z 08005KT 29/04 A2973 RMK A01 T02880038  RH  021%=      5-min Rain = 0
KMES 172350Z 08005KT 29/04 A2973 RMK A01 T02850037  RH  021%=      5-min Rain = 0
KMES 172355Z 09005KT 28/04 A2973 RMK A01 T02820036  RH  021%=      5-min Rain = 0
KMES 180000Z 09005KT 28/04 A2973 RMK A01 T02780035  RH  021%=      5-min Rain = 0
KMES 180005Z 09006KT 28/04 A2972 RMK A01 T02760035  RH  022%=      5-min Rain = 0
KMES 180010Z 10006KT 27/04 A2972 RMK A01 T02740035  RH  022%=      5-min Rain = 0
KMES 180015Z 10007KT 27/04 A2972 RMK A01 T02720037  RH  022%=      5-min Rain = 0
KMES 180020Z 10007KT 27/04 A2972 RMK A01 T02700038  RH  023%=      5-min Rain = 0
KMES 180025Z 10006KT 27/04 A2972 RMK A01 T02670039  RH  024%=      5-min Rain = 0
KMES 180030Z 09006KT 27/04 A2972 RMK A01 T02660040  RH  024%=      5-min Rain = 0
KMES 180035Z 10007KT 26/04 A2972 RMK A01 T02620040  RH  024%=      5-min Rain = 0
KMES 180040Z 10007KT 26/04 A2972 RMK A01 T02600041  RH  025%=      5-min Rain = 0
KMES 180045Z 11009G14KT 26/04 A2972 RMK A01 T02580040  RH  025%=      5-min Rain = 0
KMES 180050Z 11008KT 26/04 A2972 RMK A01 T02560041  RH  025%=      5-min Rain = 0
KMES 180055Z 10007KT 25/04 A2972 RMK A01 T02520041  RH  026%=      5-min Rain = 0
KMES 180100Z 10007KT 25/04 A2972 RMK A01 T02510041  RH  026%=      5-min Rain = 0
KMES 180105Z 10007KT 25/04 A2972 RMK A01 T02480042  RH  027%=      5-min Rain = 0
KMES 180110Z 10006KT 25/04 A2972 RMK A01 T02460041  RH  027%=      5-min Rain = 0
KMES 180115Z 11007KT 25/04 A2972 RMK A01 T02450041  RH  027%=      5-min Rain = 0
KMES 180120Z 11006KT 24/04 A2973 RMK A01 T02430042  RH  028%=      5-min Rain = 0
KMES 180125Z 11007KT 24/04 A2973 RMK A01 T02410042  RH  028%=      5-min Rain = 0
KMES 180130Z 11007KT 24/04 A2973 RMK A01 T02400042  RH  028%=      5-min Rain = 0
KMES 180135Z 10006KT 24/04 A2973 RMK A01 T02380042  RH  029%=      5-min Rain = 0
KMES 180140Z 10006KT 24/04 A2973 RMK A01 T02370042  RH  029%=      5-min Rain = 0
KMES 180145Z 09005KT 24/04 A2973 RMK A01 T02360043  RH  029%=      5-min Rain = 0
KMES 180150Z 09005KT 23/04 A2973 RMK A01 T02340043  RH  029%=      5-min Rain = 0
KMES 180155Z 08003KT 23/04 A2974 RMK A01 T02300043  RH  030%=      5-min Rain = 0
KMES 180200Z 10005KT 23/04 A2973 RMK A01 T02270043  RH  031%=      5-min Rain = 0
KMES 180205Z 09005KT 23/04 A2973 RMK A01 T02250044  RH  031%=      5-min Rain = 0
KMES 180210Z 07006KT 22/04 A2974 RMK A01 T02240044  RH  031%=      5-min Rain = 0
KMES 180215Z 09005KT 22/05 A2973 RMK A01 T02240045  RH  032%=      5-min Rain = 0
KMES 180220Z 11006KT 22/05 A2973 RMK A01 T02240046  RH  032%=      5-min Rain = 0
KMES 180225Z 11006KT 22/05 A2973 RMK A01 T02220047  RH  033%=      5-min Rain = 0
KMES 180230Z 11005KT 22/05 A2973 RMK A01 T02210048  RH  033%=      5-min Rain = 0
KMES 180235Z 10004KT 22/05 A2974 RMK A01 T02190048  RH  034%=      5-min Rain = 0
KMES 180240Z 08003KT 22/05 A2974 RMK A01 T02180049  RH  034%=      5-min Rain = 0
KMES 180245Z 06002KT 22/05 A2974 RMK A01 T02150048  RH  034%=      5-min Rain = 0
KMES 180250Z 05002KT 21/05 A2974 RMK A01 T02070046  RH  036%=      5-min Rain = 0
KMES 180255Z 07002KT 20/05 A2974 RMK A01 T02000048  RH  038%=      5-min Rain = 0
KMES 180300Z 08002KT 20/05 A2974 RMK A01 T01970050  RH  039%=      5-min Rain = 0
KMES 180305Z 11002KT 20/05 A2974 RMK A01 T01960052  RH  040%=      5-min Rain = 0
KMES 180310Z 10002KT 20/05 A2974 RMK A01 T01960051  RH  040%=      5-min Rain = 0
KMES 180315Z 05001KT 19/05 A2974 RMK A01 T01890050  RH  041%=      5-min Rain = 0
KMES 180320Z 04002KT 18/05 A2975 RMK A01 T01830048  RH  042%=      5-min Rain = 0
KMES 180325Z 05004KT 18/05 A2975 RMK A01 T01790046  RH  042%=      5-min Rain = 0
KMES 180330Z 05004KT 18/05 A2975 RMK A01 T01770050  RH  044%=      5-min Rain = 0
KMES 180335Z 07005KT 18/06 A2975 RMK A01 T01800057  RH  046%=      5-min Rain = 0
KMES 180340Z 08005KT 19/06 A2975 RMK A01 T01870058  RH  044%=      5-min Rain = 0
KMES 180345Z 08005KT 19/06 A2975 RMK A01 T01870058  RH  044%=      5-min Rain = 0
KMES 180350Z 09004KT 18/06 A2974 RMK A01 T01840059  RH  045%=      5-min Rain = 0
KMES 180355Z 11004KT 18/06 A2974 RMK A01 T01820058  RH  045%=      5-min Rain = 0
KMES 180400Z 12006KT 18/06 A2974 RMK A01 T01800058  RH  046%=      5-min Rain = 0
KMES 180405Z 12005KT 18/06 A2974 RMK A01 T01800056  RH  045%=      5-min Rain = 0
KMES 180410Z 12003KT 18/06 A2974 RMK A01 T01780055  RH  045%=      5-min Rain = 0
KMES 180415Z 10001KT 17/06 A2974 RMK A01 T01740056  RH  047%=      5-min Rain = 0
KMES 180420Z 11001KT 17/06 A2974 RMK A01 T01710059  RH  049%=      5-min Rain = 0
KMES 180425Z 13002KT 17/06 A2974 RMK A01 T01710059  RH  049%=      5-min Rain = 0
KMES 180430Z 14004KT 18/06 A2974 RMK A01 T01750058  RH  047%=      5-min Rain = 0
KMES 180435Z 16005KT 18/06 A2974 RMK A01 T01790057  RH  046%=      5-min Rain = 0
KMES 180440Z 16004KT 18/06 A2974 RMK A01 T01780056  RH  046%=      5-min Rain = 0
KMES 180445Z 17002KT 18/06 A2974 RMK A01 T01750055  RH  046%=      5-min Rain = 0
KMES 180450Z 17002KT 17/05 A2974 RMK A01 T01710054  RH  047%=      5-min Rain = 0
KMES 180455Z 19001KT 17/05 A2974 RMK A01 T01700053  RH  047%=      5-min Rain = 0

Page generated in 0.016 seconds.